Time;durP1;ratioP1;P1;durP2;ratioP2;P2;SDS_P1;SDS_P2;PMS_P1;PMS_P2;Temp;Humidity;BMP_temperature;BMP_pressure;BME280_temperature;BME280_humidity;BME280_pressure;Samples;Min_cycle;Max_cycle;Signal;HPM_P1;HPM_P2
2024/01/30 00:02:16;;;;;;;30.13;23.08;;;5.50;99.90;;;;;;4990507;28;20045;-67
2024/01/30 00:04:42;;;;;;;32.80;22.60;;;;;;;;;;4987153;28;20038;-67
2024/01/30 00:07:08;;;;;;;29.73;21.35;;;;;;;;;;4985948;28;20144;-67
2024/01/30 00:09:35;;;;;;;31.17;21.42;;;;;;;;;;4990261;28;20160;-67
2024/01/30 00:12:01;;;;;;;34.50;22.98;;;;;;;;;;4988889;28;20041;-67
2024/01/30 00:14:26;;;;;;;31.42;22.23;;;;;;;;;;4989013;28;20050;-67
2024/01/30 00:16:52;;;;;;;32.88;23.83;;;;;;;;;;4990685;28;20522;-67
2024/01/30 00:19:18;;;;;;;33.40;23.52;;;5.30;99.90;;;;;;4983577;28;20062;-67
2024/01/30 00:21:44;;;;;;;34.10;24.77;;;5.30;99.90;;;;;;4990035;28;20564;-67
2024/01/30 00:24:10;;;;;;;32.20;23.80;;;;;;;;;;4984541;28;20042;-67
2024/01/30 00:26:36;;;;;;;33.63;23.92;;;;;;;;;;4983111;28;20521;-67
2024/01/30 00:29:02;;;;;;;35.10;24.80;;;;;;;;;;4988991;28;20089;-67
2024/01/30 00:31:28;;;;;;;37.22;24.77;;;5.10;99.90;;;;;;4983967;28;20507;-67
2024/01/30 00:33:53;;;;;;;32.67;23.65;;;5.30;99.90;;;;;;4990433;28;20049;-67
2024/01/30 00:36:19;;;;;;;36.00;25.52;;;;;;;;;;4987519;28;20045;-67
2024/01/30 00:38:45;;;;;;;34.00;24.73;;;;;;;;;;4985739;28;20038;-67
2024/01/30 00:41:11;;;;;;;34.70;23.80;;;;;;;;;;4990028;28;20042;-67
2024/01/30 00:43:37;;;;;;;39.97;26.83;;;;;;;;;;4983161;28;20130;-67
2024/01/30 00:46:03;;;;;;;37.92;26.77;;;;;;;;;;4988228;28;20047;-67
2024/01/30 00:48:29;;;;;;;34.05;24.45;;;;;;;;;;4983013;28;20049;-67
2024/01/30 00:50:55;;;;;;;33.53;23.98;;;;;;;;;;4985872;28;20057;-67
2024/01/30 00:53:21;;;;;;;36.35;26.17;;;;;;;;;;4987443;28;20026;-67
2024/01/30 00:55:47;;;;;;;44.30;25.98;;;;;;;;;;4984139;28;20501;-67
2024/01/30 00:58:14;;;;;;;37.17;26.58;;;;;;;;;;4966867;28;20053;-67
2024/01/30 01:00:40;;;;;;;40.97;27.77;;;;;;;;;;4984212;28;20046;-67
2024/01/30 01:03:05;;;;;;;41.95;27.23;;;5.30;99.90;;;;;;4984849;28;20038;-67
2024/01/30 01:05:31;;;;;;;38.45;26.10;;;5.40;99.90;;;;;;4990049;28;20508;-67
2024/01/30 01:07:57;;;;;;;40.08;26.52;;;;;;;;;;4986232;28;20045;-68
2024/01/30 01:10:23;;;;;;;41.15;27.92;;;;;;;;;;4982942;28;20038;-67
2024/01/30 01:12:49;;;;;;;37.47;26.25;;;;;;;;;;4989578;28;20557;-67
2024/01/30 01:15:15;;;;;;;41.88;29.52;;;;;;;;;;4989698;28;20110;-67
2024/01/30 01:17:41;;;;;;;38.08;27.98;;;;;;;;;;4984519;28;20173;-68
2024/01/30 01:20:08;;;;;;;35.33;25.15;;;;;;;;;;4989328;28;20057;-67
2024/01/30 01:22:35;;;;;;;39.00;27.30;;;;;;;;;;4981851;28;20038;-67
2024/01/30 01:25:01;;;;;;;37.15;27.20;;;;;;;;;;4989900;28;20050;-67
2024/01/30 01:27:27;;;;;;;36.97;25.63;;;;;;;;;;4989587;28;20050;-67
2024/01/30 01:29:53;;;;;;;38.25;27.27;;;;;;;;;;4990048;28;20106;-67
2024/01/30 01:32:20;;;;;;;34.70;26.42;;;;;;;;;;4981791;28;20116;-67
2024/01/30 01:34:46;;;;;;;39.22;26.35;;;;;;;;;;4985795;28;20059;-67
2024/01/30 01:37:12;;;;;;;35.55;25.17;;;;;;;;;;4989242;28;20114;-67
2024/01/30 01:39:38;;;;;;;37.80;26.77;;;;;;;;;;4989730;28;20130;-67
2024/01/30 01:42:04;;;;;;;35.65;26.60;;;;;;;;;;4985083;28;20074;-67
2024/01/30 01:44:30;;;;;;;36.35;25.70;;;;;;;;;;4986493;28;20641;-67
2024/01/30 01:46:57;;;;;;;36.53;26.17;;;6.20;99.90;;;;;;4993798;28;20038;-67
2024/01/30 01:49:27;;;;;;;35.78;26.58;;;6.00;99.90;;;;;;4987950;28;20034;-67
2024/01/30 01:51:58;;;;;;;36.42;26.60;;;;;;;;;;4984685;28;20100;-68
2024/01/30 01:54:26;;;;;;;34.95;25.08;;;;;;;;;;4982033;28;20491;-67
2024/01/30 01:56:53;;;;;;;31.00;23.63;;;;;;;;;;4985826;28;20049;-67
2024/01/30 01:59:20;;;;;;;37.80;25.60;;;5.40;99.90;;;;;;4988600;28;20054;-67
2024/01/30 02:01:49;;;;;;;37.10;26.35;;;;;;;;;;4982247;28;20049;-67
2024/01/30 02:04:15;;;;;;;40.25;27.35;;;;;;;;;;4987540;28;20046;-67
2024/01/30 02:06:41;;;;;;;40.15;26.83;;;;;;;;;;4989850;28;20441;-67
2024/01/30 02:09:09;;;;;;;39.03;27.40;;;;;;;;;;4986086;28;20105;-67
2024/01/30 02:11:34;;;;;;;39.83;27.20;;;6.20;99.90;;;;;;4988645;28;20046;-67
2024/01/30 02:14:04;;;;;;;36.95;26.27;;;6.10;99.90;;;;;;4989415;28;20049;-67
2024/01/30 02:16:30;;;;;;;36.67;26.45;;;6.20;99.90;;;;;;4988914;28;20402;-68
2024/01/30 02:18:56;;;;;;;39.03;26.83;;;;;;;;;;4989423;28;20034;-67
2024/01/30 02:21:22;;;;;;;36.70;26.10;;;;;;;;;;4985854;28;20042;-67
2024/01/30 02:23:49;;;;;;;34.05;25.13;;;;;;;;;;4989354;28;20042;-67
2024/01/30 02:26:15;;;;;;;34.70;24.45;;;;;;;;;;4987722;28;20421;-67
2024/01/30 02:28:41;;;;;;;36.88;25.20;;;;;;;;;;4989598;28;20051;-67
2024/01/30 02:31:07;;;;;;;35.38;25.70;;;6.50;99.90;;;;;;4984421;28;20043;-67
2024/01/30 02:33:32;;;;;;;36.55;26.00;;;6.60;99.90;;;;;;4983612;28;20508;-67
2024/01/30 02:35:59;;;;;;;35.42;26.27;;;;;;;;;;4967717;28;20133;-67
2024/01/30 02:38:26;;;;;;;32.78;23.63;;;6.50;99.90;;;;;;4969340;28;20569;-67
2024/01/30 02:40:52;;;;;;;34.42;24.17;;;;;;;;;;4989213;28;20387;-67
2024/01/30 02:43:18;;;;;;;34.75;24.60;;;;;;;;;;4983711;28;20053;-68
2024/01/30 02:45:44;;;;;;;32.80;23.85;;;6.70;99.90;;;;;;4989851;28;20077;-68
2024/01/30 02:48:09;;;;;;;34.05;23.90;;;6.70;99.90;;;;;;4986954;28;20069;-68
2024/01/30 02:50:35;;;;;;;34.33;22.60;;;;;;;;;;4977648;28;20495;-68
2024/01/30 02:53:01;;;;;;;32.85;23.30;;;;;;;;;;4988226;28;20038;-68
2024/01/30 02:55:27;;;;;;;33.65;22.95;;;;;;;;;;4985573;28;20045;-67
2024/01/30 02:57:53;;;;;;;32.75;22.45;;;;;;;;;;4983875;28;20031;-68
2024/01/30 03:00:20;;;;;;;29.23;22.40;;;;;;;;;;4984173;28;20049;-67
2024/01/30 03:02:46;;;;;;;34.38;22.02;;;;;;;;;;4983930;28;20042;-68
2024/01/30 03:05:12;;;;;;;32.70;23.20;;;;;;;;;;4986642;28;20038;-67
2024/01/30 03:07:38;;;;;;;33.05;23.38;;;;;;;;;;4985298;28;20034;-67
2024/01/30 03:10:05;;;;;;;29.92;21.98;;;;;;;;;;4987164;28;20038;-68
2024/01/30 03:12:31;;;;;;;32.08;22.60;;;;;;;;;;4987312;28;20516;-67
2024/01/30 03:14:57;;;;;;;31.05;22.02;;;;;;;;;;4988901;28;20034;-68
2024/01/30 03:17:24;;;;;;;31.25;22.10;;;;;;;;;;4988247;28;20038;-68
2024/01/30 03:19:50;;;;;;;33.42;21.95;;;;;;;;;;4988949;28;20050;-68
2024/01/30 03:22:16;;;;;;;30.77;21.02;;;;;;;;;;4988726;28;20125;-68
2024/01/30 03:24:42;;;;;;;27.83;21.23;;;;;;;;;;4988661;28;20038;-68
2024/01/30 03:27:08;;;;;;;31.20;21.77;;;;;;;;;;4989129;28;20042;-67
2024/01/30 03:29:35;;;;;;;28.65;21.63;;;;;;;;;;4988086;28;20050;-68
2024/01/30 03:32:01;;;;;;;28.10;20.67;;;;;;;;;;4989572;28;20056;-68
2024/01/30 03:34:27;;;;;;;27.85;21.10;;;;;;;;;;4991733;28;20045;-65
2024/01/30 03:36:53;;;;;;;31.50;22.65;;;;;;;;;;4992208;28;20034;-65
2024/01/30 03:39:19;;;;;;;28.63;21.30;;;;;;;;;;4991575;28;20398;-65
2024/01/30 03:41:45;;;;;;;30.13;20.83;;;;;;;;;;4992163;28;20038;-65
2024/01/30 03:44:11;;;;;;;30.83;22.15;;;;;;;;;;4992041;28;20042;-65
2024/01/30 03:46:37;;;;;;;28.38;19.88;;;;;;;;;;4991548;28;20417;-65
2024/01/30 03:49:03;;;;;;;31.83;22.35;;;6.20;99.90;;;;;;4988137;28;20125;-65
2024/01/30 03:51:29;;;;;;;30.13;20.55;;;6.20;99.90;;;;;;4989811;28;20118;-65
2024/01/30 03:53:55;;;;;;;32.42;21.60;;;;;;;;;;4991602;28;20046;-65
2024/01/30 03:56:21;;;;;;;33.15;22.35;;;;;;;;;;4991470;28;20517;-65
2024/01/30 03:58:47;;;;;;;31.77;22.75;;;;;;;;;;4991755;28;20457;-65
2024/01/30 04:01:15;;;;;;;30.15;22.38;;;5.70;99.90;;;;;;4991898;28;20038;-65
2024/01/30 04:03:42;;;;;;;28.55;21.75;;;6.40;99.90;;;;;;4991077;28;20125;-65
2024/01/30 04:06:08;;;;;;;31.33;22.67;;;;;;;;;;4990652;28;20043;-65
2024/01/30 04:08:34;;;;;;;28.05;20.08;;;6.50;99.90;;;;;;4990975;28;20089;-65
2024/01/30 04:11:03;;;;;;;29.38;21.55;;;;;;;;;;4990742;28;20038;-67
2024/01/30 04:13:29;;;;;;;29.88;22.17;;;;;;;;;;4987221;28;20494;-68
2024/01/30 04:15:56;;;;;;;31.23;21.35;;;;;;;;;;4991844;28;20041;-67
2024/01/30 04:18:22;;;;;;;27.02;19.25;;;;;;;;;;4991724;28;20050;-67
2024/01/30 04:20:48;;;;;;;30.50;19.85;;;;;;;;;;4988897;28;20439;-67
2024/01/30 04:23:13;;;;;;;29.15;20.20;;;6.80;99.90;;;;;;4990263;28;20042;-67
2024/01/30 04:25:39;;;;;;;28.98;19.17;;;6.80;99.90;;;;;;4991043;28;20035;-68
2024/01/30 04:28:05;;;;;;;29.10;18.88;;;;;;;;;;4988096;28;20256;-68
2024/01/30 04:30:31;;;;;;;30.02;20.50;;;;;;;;;;4997695;28;20072;-67
2024/01/30 04:32:57;;;;;;;24.67;18.30;;;;;;;;;;4970108;28;20730;-68
2024/01/30 04:35:24;;;;;;;27.98;20.75;;;;;;;;;;4991182;28;20083;-67
2024/01/30 04:37:50;;;;;;;28.27;18.90;;;;;;;;;;4988963;28;20045;-67
2024/01/30 04:40:16;;;;;;;25.40;19.42;;;;;;;;;;4987944;28;20057;-67
2024/01/30 04:42:42;;;;;;;27.83;19.75;;;;;;;;;;4989767;28;20121;-67
2024/01/30 04:45:09;;;;;;;27.45;19.25;;;;;;;;;;4990352;28;20462;-68
2024/01/30 04:47:35;;;;;;;28.75;18.17;;;;;;;;;;4990562;28;20133;-68
2024/01/30 04:50:02;;;;;;;29.38;18.60;;;;;;;;;;4988963;28;20137;-68
2024/01/30 04:52:28;;;;;;;25.35;18.67;;;;;;;;;;4988947;28;20042;-67
2024/01/30 04:54:54;;;;;;;25.27;18.20;;;;;;;;;;4990784;28;20524;-67
2024/01/30 04:57:20;;;;;;;24.90;18.55;;;6.90;99.90;;;;;;4977573;28;20038;-68
2024/01/30 04:59:46;;;;;;;27.90;19.58;;;6.90;99.90;;;;;;4990220;28;20098;-67
2024/01/30 05:02:12;;;;;;;26.73;19.90;;;;;;;;;;4990024;28;20038;-67
2024/01/30 05:04:38;;;;;;;26.77;17.50;;;;;;;;;;4989994;28;20053;-67
2024/01/30 05:07:04;;;;;;;25.45;18.38;;;;;;;;;;4990658;28;20108;-65
2024/01/30 05:09:29;;;;;;;23.63;18.13;;;7.00;99.90;;;;;;4990146;28;20450;-65
2024/01/30 05:11:55;;;;;;;28.67;16.85;;;;;;;;;;4989942;28;20058;-65
2024/01/30 05:14:21;;;;;;;27.35;17.83;;;;;;;;;;4990734;28;20030;-65
2024/01/30 05:16:47;;;;;;;25.48;16.00;;;7.00;99.90;;;;;;4992994;28;20266;-67
2024/01/30 05:19:14;;;;;;;22.77;17.35;;;;;;;;;;4989836;28;20041;-67
2024/01/30 05:21:40;;;;;;;24.42;18.40;;;6.90;99.90;;;;;;4989882;28;20049;-67
2024/01/30 05:24:06;;;;;;;23.00;16.33;;;6.90;99.90;;;;;;4989841;28;20229;-67
2024/01/30 05:26:32;;;;;;;24.65;17.67;;;;;;;;;;4987041;28;20034;-67
2024/01/30 05:28:58;;;;;;;24.35;17.58;;;7.20;99.90;;;;;;4987900;28;20089;-67
2024/01/30 05:31:26;;;;;;;23.90;17.58;;;;;;;;;;4986244;28;20140;-67
2024/01/30 05:33:52;;;;;;;23.58;17.15;;;;;;;;;;4977588;28;20078;-67
2024/01/30 05:36:17;;;;;;;23.30;17.90;;;7.00;99.90;;;;;;4974640;28;20508;-67
2024/01/30 05:38:43;;;;;;;23.63;17.38;;;;;;;;;;4974529;28;20038;-66
2024/01/30 05:41:09;;;;;;;23.30;16.15;;;;;;;;;;4984304;28;20046;-67
2024/01/30 05:43:35;;;;;;;23.67;16.80;;;;;;;;;;4977859;28;20057;-67
2024/01/30 05:46:01;;;;;;;23.77;16.95;;;;;;;;;;4980028;28;20069;-67
2024/01/30 05:48:27;;;;;;;22.42;16.05;;;;;;;;;;4974518;28;20042;-67
2024/01/30 05:50:53;;;;;;;26.90;17.58;;;;;;;;;;4986056;28;20136;-67
2024/01/30 05:53:19;;;;;;;24.58;17.15;;;;;;;;;;4979296;28;20043;-67
2024/01/30 05:55:45;;;;;;;22.63;16.33;;;6.90;99.90;;;;;;4982190;28;20066;-67
2024/01/30 05:58:11;;;;;;;26.95;17.35;;;;;;;;;;4966326;28;20046;-67
2024/01/30 06:00:36;;;;;;;24.70;16.95;;;6.90;99.90;;;;;;4984959;28;20417;-67
2024/01/30 06:03:02;;;;;;;28.63;17.33;;;;;;;;;;4984188;28;20041;-67
2024/01/30 06:05:28;;;;;;;24.55;17.00;;;;;;;;;;4983980;28;20050;-67
2024/01/30 06:07:54;;;;;;;25.00;16.25;;;;;;;;;;4986446;28;20034;-67
2024/01/30 06:10:20;;;;;;;23.63;16.08;;;6.90;99.90;;;;;;4989259;28;20517;-67
2024/01/30 06:12:46;;;;;;;21.20;15.05;;;6.90;99.90;;;;;;4988631;28;20038;-67
2024/01/30 06:15:12;;;;;;;23.85;16.08;;;;;;;;;;4989647;28;20041;-67
2024/01/30 06:17:38;;;;;;;25.05;15.55;;;7.00;99.90;;;;;;4988370;28;20129;-67
2024/01/30 06:20:05;;;;;;;21.25;15.40;;;;;;;;;;4988425;28;20113;-67
2024/01/30 06:22:30;;;;;;;23.23;15.68;;;7.10;99.90;;;;;;4989137;28;20039;-67
2024/01/30 06:24:56;;;;;;;22.45;16.05;;;;;;;;;;4989044;28;20041;-67
2024/01/30 06:27:22;;;;;;;20.50;14.57;;;;;;;;;;4988194;28;20048;-67
2024/01/30 06:29:48;;;;;;;26.15;16.23;;;;;;;;;;4987821;28;20117;-67
2024/01/30 06:32:14;;;;;;;22.75;15.93;;;;;;;;;;4987146;28;20554;-67
2024/01/30 06:34:44;;;;;;;21.80;15.77;;;;;;;;;;4987094;28;20106;-73
2024/01/30 06:37:10;;;;;;;20.42;14.38;;;;;;;;;;4971490;28;20101;-76
2024/01/30 06:39:36;;;;;;;22.75;15.23;;;;;;;;;;4971796;28;20054;-75
2024/01/30 06:42:02;;;;;;;21.75;15.20;;;;;;;;;;4966124;28;20045;-78
2024/01/30 06:44:28;;;;;;;24.10;15.07;;;;;;;;;;4974608;28;20443;-78
2024/01/30 06:46:54;;;;;;;21.45;14.68;;;;;;;;;;4990256;28;20050;-79
2024/01/30 06:49:21;;;;;;;24.58;16.30;;;;;;;;;;4990899;28;20034;-81
2024/01/30 06:51:47;;;;;;;22.90;16.45;;;7.10;99.90;;;;;;4988648;28;20046;-76
2024/01/30 06:54:13;;;;;;;20.55;14.70;;;7.10;99.90;;;;;;4960725;28;20166;-75
2024/01/30 06:56:39;;;;;;;23.73;15.75;;;;;;;;;;4987963;28;20035;-75
2024/01/30 06:59:05;;;;;;;21.52;15.40;;;;;;;;;;4972056;28;20124;-74
2024/01/30 07:01:31;;;;;;;21.30;14.52;;;;;;;;;;4971725;28;20066;-76
2024/01/30 07:03:57;;;;;;;23.92;16.67;;;6.80;99.90;;;;;;4970395;28;20125;-75
2024/01/30 07:06:23;;;;;;;26.20;16.27;;;;;;;;;;4990769;28;20065;-78
2024/01/30 07:08:50;;;;;;;21.80;15.13;;;;;;;;;;4992009;28;20043;-78
2024/01/30 07:11:23;;;;;;;28.35;16.88;;;;;;;;;;4986585;28;20035;-72
2024/01/30 07:13:51;;;;;;;21.15;15.02;;;;;;;;;;4989829;28;20053;-75
2024/01/30 07:16:17;;;;;;;22.20;15.15;;;;;;;;;;4984062;28;20097;-81
2024/01/30 07:18:43;;;;;;;21.30;16.48;;;7.30;99.90;;;;;;4990991;28;20046;-73
2024/01/30 07:21:09;;;;;;;23.48;15.48;;;7.40;99.90;;;;;;4971312;28;20049;-76
2024/01/30 07:23:35;;;;;;;21.40;15.73;;;;;;;;;;4954284;28;20060;-77
2024/01/30 07:26:04;;;;;;;23.65;15.73;;;7.80;99.90;;;;;;4970648;28;20093;-77
2024/01/30 07:28:30;;;;;;;24.48;14.75;;;;;;;;;;4989918;28;20038;-78
2024/01/30 07:30:56;;;;;;;24.08;16.05;;;7.60;99.90;;;;;;4975603;28;20045;-77
2024/01/30 07:33:22;;;;;;;23.70;16.58;;;;;;;;;;4974563;28;20089;-78
2024/01/30 07:35:48;;;;;;;23.20;14.40;;;;;;;;;;4957969;28;20181;-76
2024/01/30 07:38:14;;;;;;;22.77;14.77;;;;;;;;;;4971454;28;20042;-77
2024/01/30 07:40:41;;;;;;;22.55;15.23;;;;;;;;;;4988078;28;20069;-76
2024/01/30 07:43:08;;;;;;;24.27;15.00;;;;;;;;;;4986573;28;20105;-73
2024/01/30 07:45:33;;;;;;;20.30;14.52;;;7.50;99.90;;;;;;4988327;28;20053;-73
2024/01/30 07:47:59;;;;;;;23.48;14.70;;;;;;;;;;4973335;28;20034;-75
2024/01/30 07:50:26;;;;;;;24.70;15.15;;;;;;;;;;4991945;28;20122;-76
2024/01/30 07:52:54;;;;;;;19.85;13.73;;;7.60;99.90;;;;;;4987885;28;20034;-80
2024/01/30 07:55:24;;;;;;;20.15;14.52;;;;;;;;;;4990931;28;20088;-72
2024/01/30 07:57:50;;;;;;;24.92;14.27;;;;;;;;;;4989772;28;20046;-72
2024/01/30 08:00:17;;;;;;;28.73;18.00;;;;;;;;;;4974873;28;20518;-76
2024/01/30 08:02:55;;;;;;;23.00;15.13;;;;;;;;;;4991143;28;20508;-74
2024/01/30 08:05:22;;;;;;;23.73;14.63;;;;;;;;;;4983438;28;20104;-74
2024/01/30 08:07:49;;;;;;;21.60;13.77;;;;;;;;;;4977220;28;20042;-74
2024/01/30 08:10:15;;;;;;;21.10;14.93;;;;;;;;;;4988492;28;20595;-74
2024/01/30 08:12:41;;;;;;;24.40;16.50;;;;;;;;;;4989916;28;20125;-74
2024/01/30 08:15:07;;;;;;;22.52;15.30;;;8.10;99.90;;;;;;4990802;28;20038;-74
2024/01/30 08:17:33;;;;;;;21.73;13.52;;;8.20;99.90;;;;;;4989580;28;20038;-74
2024/01/30 08:19:59;;;;;;;19.73;13.70;;;;;;;;;;4982046;28;20615;-73
2024/01/30 08:22:25;;;;;;;20.38;14.70;;;8.30;99.90;;;;;;4990574;28;20042;-74
2024/01/30 08:24:51;;;;;;;22.35;14.48;;;;;;;;;;4989324;28;20057;-74
2024/01/30 08:27:17;;;;;;;19.70;13.02;;;;;;;;;;4973583;28;20064;-74
2024/01/30 08:29:43;;;;;;;23.25;15.48;;;8.70;99.90;;;;;;4973548;28;20043;-74
2024/01/30 08:32:09;;;;;;;20.88;13.88;;;;;;;;;;4989899;28;20105;-74
2024/01/30 08:34:35;;;;;;;21.20;13.65;;;;;;;;;;4990912;28;20034;-74
2024/01/30 08:37:01;;;;;;;20.55;13.65;;;;;;;;;;4989952;28;20042;-74
2024/01/30 08:39:27;;;;;;;23.33;13.40;;;;;;;;;;4990408;28;20052;-74
2024/01/30 08:41:53;;;;;;;20.70;13.20;;;;;;;;;;4972308;28;20116;-74
2024/01/30 08:44:19;;;;;;;20.48;12.60;;;;;;;;;;4990695;28;20042;-74
2024/01/30 08:46:45;;;;;;;21.88;13.10;;;;;;;;;;4989712;28;20050;-74
2024/01/30 08:49:15;;;;;;;22.08;13.20;;;;;;;;;;4989878;28;20046;-74
2024/01/30 08:51:41;;;;;;;19.90;12.57;;;;;;;;;;4980562;28;20697;-74
2024/01/30 08:54:07;;;;;;;23.33;13.57;;;;;;;;;;4972234;28;20050;-74
2024/01/30 08:56:33;;;;;;;21.23;13.25;;;9.60;99.90;;;;;;4989170;28;20034;-74
2024/01/30 08:58:58;;;;;;;22.00;13.65;;;9.90;91.90;;;;;;4974841;28;20030;-74
2024/01/30 09:01:25;;;;;;;22.73;12.75;;;9.70;90.90;;;;;;4982337;28;20089;-74
2024/01/30 09:03:51;;;;;;;24.08;11.73;;;;;;;;;;4973196;28;20042;-74
2024/01/30 09:06:17;;;;;;;22.20;12.50;;;;;;;;;;4973231;28;20056;-74
2024/01/30 09:08:43;;;;;;;22.95;13.15;;;;;;;;;;4988819;28;20046;-74
2024/01/30 09:11:10;;;;;;;20.92;12.40;;;10.00;62.80;;;;;;4988068;28;20050;-74
2024/01/30 09:13:37;;;;;;;18.00;11.75;;;;;;;;;;4988855;28;20046;-74
2024/01/30 09:16:03;;;;;;;18.40;11.45;;;;;;;;;;4987462;28;20164;-74
2024/01/30 09:18:29;;;;;;;22.75;12.43;;;;;;;;;;4972814;28;20045;-74
2024/01/30 09:20:54;;;;;;;21.00;12.75;;;10.20;35.60;;;;;;4971610;28;20485;-74
2024/01/30 09:23:20;;;;;;;17.60;11.75;;;;;;;;;;4973073;28;20034;-74
2024/01/30 09:25:46;;;;;;;18.00;11.48;;;;;;;;;;4988828;28;20042;-74
2024/01/30 09:28:12;;;;;;;19.52;11.77;;;;;;;;;;4988304;28;20395;-74
2024/01/30 09:30:38;;;;;;;24.77;11.65;;;;;;;;;;4987160;28;20052;-74
2024/01/30 09:33:04;;;;;;;20.27;11.73;;;;;;;;;;4987226;28;20045;-74
2024/01/30 09:35:30;;;;;;;20.00;12.05;;;10.20;15.10;;;;;;4989393;28;20553;-75
2024/01/30 09:37:57;;;;;;;19.23;11.70;;;;;;;;;;4989154;28;20034;-75
2024/01/30 09:40:23;;;;;;;18.83;12.10;;;;;;;;;;4969995;28;20042;-76
2024/01/30 09:42:50;;;;;;;18.08;11.13;;;10.50;14.80;;;;;;4966050;28;20065;-74
2024/01/30 09:45:18;;;;;;;24.95;12.88;;;;;;;;;;4968568;28;20085;-76
2024/01/30 09:47:44;;;;;;;18.02;12.15;;;;;;;;;;4982595;28;20129;-75
2024/01/30 09:50:12;;;;;;;20.55;12.75;;;10.50;13.80;;;;;;4969779;28;20506;-71
2024/01/30 09:52:38;;;;;;;14.30;10.32;;;;;;;;;;4968424;28;20053;-68
2024/01/30 09:55:05;;;;;;;21.92;11.07;;;10.30;5.10;;;;;;4988280;28;20042;-67
2024/01/30 09:57:31;;;;;;;16.10;10.45;;;;;;;;;;4987174;28;20034;-67
2024/01/30 09:59:57;;;;;;;15.77;10.00;;;;;;;;;;4987344;28;20468;-67
2024/01/30 10:02:23;;;;;;;17.95;10.73;;;;;;;;;;4986392;28;20034;-68
2024/01/30 10:04:50;;;;;;;15.63;10.23;;;;;;;;;;4971417;28;20137;-68
2024/01/30 10:07:16;;;;;;;16.52;10.10;;;10.20;1.00;;;;;;4988240;28;20041;-67
2024/01/30 10:09:42;;;;;;;17.08;10.13;;;10.30;1.00;;;;;;4989405;28;20080;-67
2024/01/30 10:12:09;;;;;;;15.80;10.77;;;;;;;;;;4982128;28;20034;-67
2024/01/30 10:14:38;;;;;;;17.42;9.95;;;;;;;;;;4989442;28;20038;-67
2024/01/30 10:17:05;;;;;;;16.25;9.38;;;;;;;;;;4970699;28;20614;-67
2024/01/30 10:19:31;;;;;;;16.15;8.95;;;;;;;;;;4989512;28;20034;-67
2024/01/30 10:21:57;;;;;;;15.55;9.57;;;;;;;;;;4970621;28;20386;-66
2024/01/30 10:24:29;;;;;;;16.52;10.00;;;;;;;;;;4971609;28;20266;-67
2024/01/30 10:26:55;;;;;;;13.75;9.55;;;;;;;;;;4989092;28;20053;-67
2024/01/30 10:29:21;;;;;;;15.45;9.27;;;;;;;;;;4988210;28;20038;-68
2024/01/30 10:31:57;;;;;;;19.45;8.80;;;;;;;;;;4988800;28;20050;-67
2024/01/30 10:34:23;;;;;;;18.15;8.85;;;;;;;;;;4988846;28;20442;-67
2024/01/30 10:36:55;;;;;;;15.57;7.82;;;9.60;55.50;;;;;;4989256;28;20173;-67
2024/01/30 10:39:23;;;;;;;14.38;7.20;;;9.00;70.10;;;;;;4987909;28;20030;-67
2024/01/30 10:41:54;;;;;;;17.88;7.35;;;9.00;89.80;;;;;;4991646;28;20046;-65
2024/01/30 10:44:22;;;;;;;18.52;6.18;;;;;;;;;;4987618;28;20657;-67
2024/01/30 10:47:00;;;;;;;15.75;6.40;;;10.10;95.20;;;;;;4982672;28;20070;-67
2024/01/30 10:49:26;;;;;;;14.85;6.18;;;;;;;;;;4985681;28;20034;-67
2024/01/30 10:51:53;;;;;;;17.27;5.45;;;9.50;96.10;;;;;;4990019;28;20097;-67
2024/01/30 10:54:20;;;;;;;11.88;4.80;;;9.00;94.00;;;;;;4989332;28;20129;-67
2024/01/30 10:56:46;;;;;;;12.77;4.45;;;8.80;83.40;;;;;;4990022;28;20039;-66
2024/01/30 10:59:13;;;;;;;10.52;4.30;;;;;;;;;;4965009;28;20041;-67
2024/01/30 11:01:39;;;;;;;8.55;3.08;;;;;;;;;;4975122;28;20054;-66
2024/01/30 11:04:07;;;;;;;11.30;3.17;;;;;;;;;;4973283;28;20042;-66
2024/01/30 11:06:41;;;;;;;10.27;3.05;;;;;;;;;;4987168;28;20477;-66
2024/01/30 11:09:12;;;;;;;9.80;3.08;;;;;;;;;;4991416;28;20503;-65
2024/01/30 11:12:01;;;;;;;9.82;2.40;;;;;;;;;;4992480;28;20050;-66
2024/01/30 11:14:27;;;;;;;8.57;3.05;;;;;;;;;;4985566;28;20046;-66
2024/01/30 11:16:53;;;;;;;13.13;2.35;;;;;;;;;;4991422;28;20046;-65
2024/01/30 11:19:24;;;;;;;8.95;2.38;;;9.10;99.90;;;;;;4991418;28;20042;-66
2024/01/30 11:21:53;;;;;;;9.63;2.40;;;;;;;;;;4992378;28;20042;-65
2024/01/30 11:24:21;;;;;;;9.57;2.97;;;;;;;;;;4991621;28;20054;-66
2024/01/30 11:26:48;;;;;;;8.23;2.60;;;;;;;;;;4974792;28;20518;-66
2024/01/30 11:29:15;;;;;;;7.70;3.13;;;;;;;;;;4991225;28;20050;-65
2024/01/30 11:31:41;;;;;;;10.68;3.42;;;;;;;;;;4992043;28;20571;-67
2024/01/30 11:34:08;;;;;;;10.25;2.60;;;;;;;;;;4970250;28;20418;-67
2024/01/30 11:36:37;;;;;;;8.50;2.13;;;;;;;;;;4986783;28;20126;-67
2024/01/30 11:39:03;;;;;;;8.43;2.30;;;;;;;;;;4987885;28;20039;-67
2024/01/30 11:41:29;;;;;;;14.40;3.13;;;;;;;;;;4990494;28;20034;-67
2024/01/30 11:43:55;;;;;;;8.32;2.60;;;;;;;;;;4973942;28;20264;-67
2024/01/30 11:46:21;;;;;;;10.30;2.63;;;;;;;;;;4990898;28;20061;-67
2024/01/30 11:48:47;;;;;;;11.38;3.05;;;;;;;;;;4991179;28;20057;-67
2024/01/30 11:51:14;;;;;;;8.18;3.13;;;;;;;;;;4988642;28;20038;-67
2024/01/30 11:53:40;;;;;;;8.73;3.35;;;;;;;;;;4983670;28;20045;-67
2024/01/30 11:56:09;;;;;;;8.55;3.35;;;8.60;99.90;;;;;;4983814;28;20494;-66
2024/01/30 11:58:35;;;;;;;9.75;3.08;;;;;;;;;;4981954;28;20042;-67
2024/01/30 12:01:02;;;;;;;9.10;2.95;;;;;;;;;;4987512;28;20074;-67
2024/01/30 12:03:28;;;;;;;10.85;3.28;;;;;;;;;;4970681;28;20054;-66
2024/01/30 12:06:01;;;;;;;10.65;3.08;;;;;;;;;;4990559;28;20048;-67
2024/01/30 12:08:27;;;;;;;9.00;3.00;;;8.80;99.90;;;;;;4990415;28;20045;-67
2024/01/30 12:10:58;;;;;;;8.05;3.10;;;8.60;99.90;;;;;;4990912;28;20053;-66
2024/01/30 12:13:24;;;;;;;11.77;2.97;;;;;;;;;;4990282;28;20592;-66
2024/01/30 12:15:50;;;;;;;8.40;3.00;;;;;;;;;;4991153;28;20057;-67
2024/01/30 12:18:19;;;;;;;9.63;2.88;;;8.80;99.90;;;;;;4990770;28;20042;-66
2024/01/30 12:20:45;;;;;;;10.48;2.75;;;;;;;;;;4988358;28;20053;-66
2024/01/30 12:23:12;;;;;;;12.65;3.78;;;8.90;99.90;;;;;;4990193;28;20073;-66
2024/01/30 12:25:38;;;;;;;11.45;2.88;;;8.70;99.90;;;;;;4991032;28;20046;-67
2024/01/30 12:28:04;;;;;;;9.38;2.65;;;8.80;99.90;;;;;;4990765;28;20538;-67
2024/01/30 12:30:30;;;;;;;9.90;2.92;;;;;;;;;;4956300;28;20104;-66
2024/01/30 12:32:56;;;;;;;10.65;2.88;;;8.70;99.90;;;;;;4990265;28;20041;-66
2024/01/30 12:35:22;;;;;;;11.35;5.07;;;;;;;;;;4984405;28;20397;-66
2024/01/30 12:37:48;;;;;;;10.50;2.95;;;;;;;;;;4970668;28;20042;-66
2024/01/30 12:40:15;;;;;;;9.68;3.50;;;;;;;;;;4989957;28;20063;-65
2024/01/30 12:42:42;;;;;;;12.73;3.50;;;8.80;99.90;;;;;;4990100;28;20125;-65
2024/01/30 12:45:08;;;;;;;8.68;3.58;;;;;;;;;;4989644;28;20049;-65
2024/01/30 12:47:34;;;;;;;10.13;3.60;;;;;;;;;;4987130;28;20093;-65
2024/01/30 12:50:00;;;;;;;11.20;4.10;;;;;;;;;;4988498;28;20034;-67
2024/01/30 12:52:27;;;;;;;8.05;3.05;;;;;;;;;;4983914;28;20109;-66
2024/01/30 12:54:52;;;;;;;7.35;2.80;;;8.80;99.90;;;;;;4990236;28;20494;-66
2024/01/30 12:57:18;;;;;;;7.50;2.90;;;8.70;99.90;;;;;;4989585;28;20086;-66
2024/01/30 12:59:45;;;;;;;10.52;3.08;;;8.70;99.90;;;;;;4990268;28;20038;-66
2024/01/30 13:02:11;;;;;;;8.88;3.13;;;;;;;;;;4989959;28;20034;-66
2024/01/30 13:04:37;;;;;;;10.85;3.55;;;8.60;99.90;;;;;;4988990;28;20428;-66
2024/01/30 13:07:03;;;;;;;9.38;3.45;;;;;;;;;;4985692;28;20035;-66
2024/01/30 13:09:30;;;;;;;8.73;3.60;;;;;;;;;;4989725;28;20406;-66
2024/01/30 13:11:56;;;;;;;8.90;3.60;;;8.60;99.90;;;;;;4989518;28;20049;-66
2024/01/30 13:14:22;;;;;;;9.15;2.97;;;8.50;1.00;;;;;;4989403;28;20408;-66
2024/01/30 13:16:47;;;;;;;8.05;3.33;;;8.40;1.00;;;;;;4990583;28;20117;-67
2024/01/30 13:19:13;;;;;;;8.30;3.53;;;;;;;;;;4989942;28;20065;-66
2024/01/30 13:21:39;;;;;;;6.57;2.65;;;;;;;;;;4986528;28;20324;-67
2024/01/30 13:24:05;;;;;;;7.32;3.13;;;;;;;;;;4988298;28;20047;-67
2024/01/30 13:26:39;;;;;;;9.00;3.10;;;;;;;;;;5120565;27;20383;-66
2024/01/30 13:29:04;;;;;;;7.43;3.30;;;8.50;1.00;;;;;;5109532;28;20044;-66
2024/01/30 13:31:31;;;;;;;9.25;3.80;;;;;;;;;;5101023;28;20039;-67
2024/01/30 13:33:57;;;;;;;7.45;3.53;;;;;;;;;;5101226;28;20507;-66
2024/01/30 13:36:23;;;;;;;11.18;3.83;;;;;;;;;;5102504;28;20040;-66
2024/01/30 13:38:49;;;;;;;11.95;4.50;;;;;;;;;;5103230;28;20036;-66
2024/01/30 13:41:16;;;;;;;12.80;5.22;;;;;;;;;;5095335;28;20467;-66
2024/01/30 13:43:42;;;;;;;11.70;5.43;;;;;;;;;;5098028;28;20082;-67
2024/01/30 13:46:08;;;;;;;15.57;6.72;;;;;;;;;;5096332;28;20032;-66
2024/01/30 13:48:34;;;;;;;16.40;5.80;;;;;;;;;;5099942;28;20064;-66
2024/01/30 13:51:00;;;;;;;11.98;6.00;;;;;;;;;;5102639;28;20042;-66